sensor_id;sensor_type;location;lat;lon;timestamp;P1;durP1;ratioP1;P2;durP2;ratioP2
79751;SDS011;69234;47.446;21.636;2024-02-15T00:00:13;56.13;;;53.60;;
79751;SDS011;69234;47.446;21.636;2024-02-15T00:00:46;50.47;;;48.37;;
79751;SDS011;69234;47.446;21.636;2024-02-15T00:01:18;49.23;;;47.47;;
79751;SDS011;69234;47.446;21.636;2024-02-15T00:01:49;48.50;;;46.97;;
79751;SDS011;69234;47.446;21.636;2024-02-15T00:02:20;49.00;;;47.40;;
79751;SDS011;69234;47.446;21.636;2024-02-15T00:02:51;50.10;;;48.20;;
79751;SDS011;69234;47.446;21.636;2024-02-15T00:03:22;49.43;;;47.13;;
79751;SDS011;69234;47.446;21.636;2024-02-15T00:03:53;48.97;;;46.83;;
79751;SDS011;69234;47.446;21.636;2024-02-15T00:04:24;48.47;;;46.87;;
79751;SDS011;69234;47.446;21.636;2024-02-15T00:04:55;47.93;;;46.57;;
79751;SDS011;69234;47.446;21.636;2024-02-15T00:05:26;48.57;;;46.70;;
79751;SDS011;69234;47.446;21.636;2024-02-15T00:05:57;47.93;;;46.33;;
79751;SDS011;69234;47.446;21.636;2024-02-15T00:06:29;46.30;;;45.03;;
79751;SDS011;69234;47.446;21.636;2024-02-15T00:06:59;46.70;;;45.23;;
79751;SDS011;69234;47.446;21.636;2024-02-15T00:07:32;46.90;;;45.37;;
79751;SDS011;69234;47.446;21.636;2024-02-15T00:08:05;47.13;;;45.77;;
79751;SDS011;69234;47.446;21.636;2024-02-15T00:08:36;46.03;;;44.63;;
79751;SDS011;69234;47.446;21.636;2024-02-15T00:09:07;46.53;;;45.07;;
79751;SDS011;69234;47.446;21.636;2024-02-15T00:09:38;46.70;;;45.00;;
79751;SDS011;69234;47.446;21.636;2024-02-15T00:10:09;46.93;;;45.37;;
79751;SDS011;69234;47.446;21.636;2024-02-15T00:10:40;46.13;;;44.30;;
79751;SDS011;69234;47.446;21.636;2024-02-15T00:11:11;45.20;;;43.57;;
79751;SDS011;69234;47.446;21.636;2024-02-15T00:11:43;44.20;;;42.37;;
79751;SDS011;69234;47.446;21.636;2024-02-15T00:12:14;46.37;;;44.50;;
79751;SDS011;69234;47.446;21.636;2024-02-15T00:12:45;43.13;;;41.77;;
79751;SDS011;69234;47.446;21.636;2024-02-15T00:13:18;43.43;;;42.33;;
79751;SDS011;69234;47.446;21.636;2024-02-15T00:13:49;43.43;;;42.27;;
79751;SDS011;69234;47.446;21.636;2024-02-15T00:14:20;45.40;;;43.83;;
79751;SDS011;69234;47.446;21.636;2024-02-15T00:14:51;43.80;;;42.57;;
79751;SDS011;69234;47.446;21.636;2024-02-15T00:15:22;43.37;;;42.00;;
79751;SDS011;69234;47.446;21.636;2024-02-15T00:15:53;42.37;;;41.10;;
79751;SDS011;69234;47.446;21.636;2024-02-15T00:16:24;42.87;;;41.70;;
79751;SDS011;69234;47.446;21.636;2024-02-15T00:16:55;42.83;;;41.43;;
79751;SDS011;69234;47.446;21.636;2024-02-15T00:17:26;42.20;;;40.87;;
79751;SDS011;69234;47.446;21.636;2024-02-15T00:17:59;41.90;;;40.50;;
79751;SDS011;69234;47.446;21.636;2024-02-15T00:18:31;42.60;;;41.30;;
79751;SDS011;69234;47.446;21.636;2024-02-15T00:19:02;42.20;;;40.83;;
79751;SDS011;69234;47.446;21.636;2024-02-15T00:19:33;42.33;;;41.20;;
79751;SDS011;69234;47.446;21.636;2024-02-15T00:20:04;42.03;;;40.90;;
79751;SDS011;69234;47.446;21.636;2024-02-15T00:20:39;40.40;;;39.30;;
79751;SDS011;69234;47.446;21.636;2024-02-15T00:21:10;39.93;;;38.87;;
79751;SDS011;69234;47.446;21.636;2024-02-15T00:21:42;41.87;;;40.60;;
79751;SDS011;69234;47.446;21.636;2024-02-15T00:22:14;41.37;;;39.80;;
79751;SDS011;69234;47.446;21.636;2024-02-15T00:22:45;42.10;;;40.73;;
79751;SDS011;69234;47.446;21.636;2024-02-15T00:23:18;41.50;;;40.27;;
79751;SDS011;69234;47.446;21.636;2024-02-15T00:23:49;42.27;;;41.10;;
79751;SDS011;69234;47.446;21.636;2024-02-15T00:24:20;43.03;;;41.60;;
79751;SDS011;69234;47.446;21.636;2024-02-15T00:24:51;43.00;;;41.70;;
79751;SDS011;69234;47.446;21.636;2024-02-15T00:25:23;42.40;;;41.07;;
79751;SDS011;69234;47.446;21.636;2024-02-15T00:25:56;42.23;;;41.20;;
79751;SDS011;69234;47.446;21.636;2024-02-15T00:26:27;41.00;;;39.83;;
79751;SDS011;69234;47.446;21.636;2024-02-15T00:26:57;41.87;;;40.23;;
79751;SDS011;69234;47.446;21.636;2024-02-15T00:27:28;42.77;;;41.23;;
79751;SDS011;69234;47.446;21.636;2024-02-15T00:27:59;43.50;;;42.27;;
79751;SDS011;69234;47.446;21.636;2024-02-15T00:28:31;44.73;;;43.40;;
79751;SDS011;69234;47.446;21.636;2024-02-15T00:29:03;44.27;;;42.97;;
79751;SDS011;69234;47.446;21.636;2024-02-15T00:29:34;44.33;;;43.23;;
79751;SDS011;69234;47.446;21.636;2024-02-15T00:30:05;44.13;;;43.10;;
79751;SDS011;69234;47.446;21.636;2024-02-15T00:30:37;43.83;;;42.57;;
79751;SDS011;69234;47.446;21.636;2024-02-15T00:31:08;43.63;;;42.03;;
79751;SDS011;69234;47.446;21.636;2024-02-15T00:31:39;42.37;;;40.87;;
79751;SDS011;69234;47.446;21.636;2024-02-15T00:32:10;44.10;;;42.57;;
79751;SDS011;69234;47.446;21.636;2024-02-15T00:32:41;43.27;;;41.97;;
79751;SDS011;69234;47.446;21.636;2024-02-15T00:33:12;44.10;;;42.77;;
79751;SDS011;69234;47.446;21.636;2024-02-15T00:33:43;44.50;;;42.87;;
79751;SDS011;69234;47.446;21.636;2024-02-15T00:34:14;45.43;;;43.83;;
79751;SDS011;69234;47.446;21.636;2024-02-15T00:34:46;43.50;;;42.00;;
79751;SDS011;69234;47.446;21.636;2024-02-15T00:35:17;43.27;;;41.97;;
79751;SDS011;69234;47.446;21.636;2024-02-15T00:35:48;42.03;;;41.13;;
79751;SDS011;69234;47.446;21.636;2024-02-15T00:36:22;42.50;;;41.63;;
79751;SDS011;69234;47.446;21.636;2024-02-15T00:36:53;43.97;;;42.63;;
79751;SDS011;69234;47.446;21.636;2024-02-15T00:37:24;44.37;;;42.77;;
79751;SDS011;69234;47.446;21.636;2024-02-15T00:37:55;43.00;;;41.33;;
79751;SDS011;69234;47.446;21.636;2024-02-15T00:38:26;42.97;;;41.40;;
79751;SDS011;69234;47.446;21.636;2024-02-15T00:38:57;42.83;;;41.23;;
79751;SDS011;69234;47.446;21.636;2024-02-15T00:39:27;42.53;;;41.20;;
79751;SDS011;69234;47.446;21.636;2024-02-15T00:39:58;41.70;;;40.53;;
79751;SDS011;69234;47.446;21.636;2024-02-15T00:40:29;41.07;;;40.03;;
79751;SDS011;69234;47.446;21.636;2024-02-15T00:41:00;41.27;;;40.13;;
79751;SDS011;69234;47.446;21.636;2024-02-15T00:41:31;43.23;;;41.93;;
79751;SDS011;69234;47.446;21.636;2024-02-15T00:42:03;42.77;;;41.53;;
79751;SDS011;69234;47.446;21.636;2024-02-15T00:42:39;42.23;;;41.00;;
79751;SDS011;69234;47.446;21.636;2024-02-15T00:43:10;44.10;;;43.10;;
79751;SDS011;69234;47.446;21.636;2024-02-15T00:43:40;43.03;;;42.03;;
79751;SDS011;69234;47.446;21.636;2024-02-15T00:44:11;42.73;;;41.63;;
79751;SDS011;69234;47.446;21.636;2024-02-15T00:44:42;42.57;;;41.40;;
79751;SDS011;69234;47.446;21.636;2024-02-15T00:45:13;43.57;;;42.37;;
79751;SDS011;69234;47.446;21.636;2024-02-15T00:45:44;44.47;;;43.00;;
79751;SDS011;69234;47.446;21.636;2024-02-15T00:46:16;44.87;;;43.43;;
79751;SDS011;69234;47.446;21.636;2024-02-15T00:46:47;42.93;;;41.67;;
79751;SDS011;69234;47.446;21.636;2024-02-15T00:47:18;43.40;;;42.27;;
79751;SDS011;69234;47.446;21.636;2024-02-15T00:47:51;43.50;;;42.47;;
79751;SDS011;69234;47.446;21.636;2024-02-15T00:48:22;43.67;;;42.53;;
79751;SDS011;69234;47.446;21.636;2024-02-15T00:48:56;43.83;;;42.47;;
79751;SDS011;69234;47.446;21.636;2024-02-15T00:49:28;46.07;;;44.23;;
79751;SDS011;69234;47.446;21.636;2024-02-15T00:49:59;46.17;;;44.70;;
79751;SDS011;69234;47.446;21.636;2024-02-15T00:50:29;46.10;;;44.60;;
79751;SDS011;69234;47.446;21.636;2024-02-15T00:51:00;47.67;;;46.30;;
79751;SDS011;69234;47.446;21.636;2024-02-15T00:51:35;47.13;;;45.77;;
79751;SDS011;69234;47.446;21.636;2024-02-15T00:52:06;45.83;;;44.73;;
79751;SDS011;69234;47.446;21.636;2024-02-15T00:52:37;47.20;;;46.13;;
79751;SDS011;69234;47.446;21.636;2024-02-15T00:53:08;48.00;;;46.67;;
79751;SDS011;69234;47.446;21.636;2024-02-15T00:53:40;48.83;;;47.20;;
79751;SDS011;69234;47.446;21.636;2024-02-15T00:54:10;48.07;;;46.80;;
79751;SDS011;69234;47.446;21.636;2024-02-15T00:54:41;48.33;;;47.00;;
79751;SDS011;69234;47.446;21.636;2024-02-15T00:55:12;50.00;;;48.70;;
79751;SDS011;69234;47.446;21.636;2024-02-15T00:55:43;49.00;;;47.57;;
79751;SDS011;69234;47.446;21.636;2024-02-15T00:56:14;46.90;;;45.30;;
79751;SDS011;69234;47.446;21.636;2024-02-15T00:56:45;45.97;;;44.50;;
79751;SDS011;69234;47.446;21.636;2024-02-15T00:57:16;46.13;;;44.70;;
79751;SDS011;69234;47.446;21.636;2024-02-15T00:57:47;44.53;;;43.33;;
79751;SDS011;69234;47.446;21.636;2024-02-15T00:58:18;44.77;;;43.57;;
79751;SDS011;69234;47.446;21.636;2024-02-15T00:58:49;43.77;;;42.77;;
79751;SDS011;69234;47.446;21.636;2024-02-15T00:59:21;44.83;;;43.73;;
79751;SDS011;69234;47.446;21.636;2024-02-15T00:59:52;44.53;;;43.33;;
79751;SDS011;69234;47.446;21.636;2024-02-15T01:00:23;43.30;;;42.03;;
79751;SDS011;69234;47.446;21.636;2024-02-15T01:00:54;42.73;;;41.53;;
79751;SDS011;69234;47.446;21.636;2024-02-15T01:01:25;43.00;;;41.97;;
79751;SDS011;69234;47.446;21.636;2024-02-15T01:01:56;43.90;;;43.03;;
79751;SDS011;69234;47.446;21.636;2024-02-15T01:02:27;44.30;;;43.30;;
79751;SDS011;69234;47.446;21.636;2024-02-15T01:02:59;42.97;;;41.83;;
79751;SDS011;69234;47.446;21.636;2024-02-15T01:03:30;43.50;;;42.37;;
79751;SDS011;69234;47.446;21.636;2024-02-15T01:04:02;43.80;;;42.77;;
79751;SDS011;69234;47.446;21.636;2024-02-15T01:04:33;42.57;;;41.37;;
79751;SDS011;69234;47.446;21.636;2024-02-15T01:05:04;43.47;;;42.13;;
79751;SDS011;69234;47.446;21.636;2024-02-15T01:05:35;42.67;;;41.40;;
79751;SDS011;69234;47.446;21.636;2024-02-15T01:06:06;41.50;;;40.23;;
79751;SDS011;69234;47.446;21.636;2024-02-15T01:06:37;42.30;;;40.93;;
79751;SDS011;69234;47.446;21.636;2024-02-15T01:07:08;42.53;;;41.23;;
79751;SDS011;69234;47.446;21.636;2024-02-15T01:07:39;42.10;;;41.10;;
79751;SDS011;69234;47.446;21.636;2024-02-15T01:08:10;41.77;;;40.70;;
79751;SDS011;69234;47.446;21.636;2024-02-15T01:08:41;43.33;;;42.00;;
79751;SDS011;69234;47.446;21.636;2024-02-15T01:09:12;45.67;;;43.87;;
79751;SDS011;69234;47.446;21.636;2024-02-15T01:09:43;42.57;;;41.37;;
79751;SDS011;69234;47.446;21.636;2024-02-15T01:10:15;42.00;;;40.90;;
79751;SDS011;69234;47.446;21.636;2024-02-15T01:10:46;43.57;;;42.10;;
79751;SDS011;69234;47.446;21.636;2024-02-15T01:11:17;44.17;;;42.57;;
79751;SDS011;69234;47.446;21.636;2024-02-15T01:11:48;44.17;;;42.63;;
79751;SDS011;69234;47.446;21.636;2024-02-15T01:12:19;44.50;;;43.23;;
79751;SDS011;69234;47.446;21.636;2024-02-15T01:12:51;44.47;;;43.20;;
79751;SDS011;69234;47.446;21.636;2024-02-15T01:13:22;44.13;;;42.70;;
79751;SDS011;69234;47.446;21.636;2024-02-15T01:13:54;43.47;;;41.90;;
79751;SDS011;69234;47.446;21.636;2024-02-15T01:14:25;43.90;;;42.57;;
79751;SDS011;69234;47.446;21.636;2024-02-15T01:15:00;44.20;;;42.87;;
79751;SDS011;69234;47.446;21.636;2024-02-15T01:15:32;46.13;;;44.73;;
79751;SDS011;69234;47.446;21.636;2024-02-15T01:16:03;45.57;;;43.80;;
79751;SDS011;69234;47.446;21.636;2024-02-15T01:16:35;45.33;;;43.37;;
79751;SDS011;69234;47.446;21.636;2024-02-15T01:17:07;46.13;;;44.53;;
79751;SDS011;69234;47.446;21.636;2024-02-15T01:17:37;45.67;;;44.20;;
79751;SDS011;69234;47.446;21.636;2024-02-15T01:18:08;45.97;;;44.30;;
79751;SDS011;69234;47.446;21.636;2024-02-15T01:18:39;45.97;;;44.47;;
79751;SDS011;69234;47.446;21.636;2024-02-15T01:19:10;46.57;;;45.17;;
79751;SDS011;69234;47.446;21.636;2024-02-15T01:19:41;44.03;;;42.67;;
79751;SDS011;69234;47.446;21.636;2024-02-15T01:20:12;42.53;;;41.23;;
79751;SDS011;69234;47.446;21.636;2024-02-15T01:20:43;43.13;;;41.50;;
79751;SDS011;69234;47.446;21.636;2024-02-15T01:21:15;44.43;;;42.93;;
79751;SDS011;69234;47.446;21.636;2024-02-15T01:21:46;44.47;;;42.87;;
79751;SDS011;69234;47.446;21.636;2024-02-15T01:22:17;44.43;;;43.07;;
79751;SDS011;69234;47.446;21.636;2024-02-15T01:22:48;43.37;;;42.23;;
79751;SDS011;69234;47.446;21.636;2024-02-15T01:23:20;44.77;;;43.70;;
79751;SDS011;69234;47.446;21.636;2024-02-15T01:23:52;44.00;;;42.90;;
79751;SDS011;69234;47.446;21.636;2024-02-15T01:24:24;44.90;;;43.33;;
79751;SDS011;69234;47.446;21.636;2024-02-15T01:24:55;45.50;;;43.70;;
79751;SDS011;69234;47.446;21.636;2024-02-15T01:25:47;44.00;;;42.47;;
79751;SDS011;69234;47.446;21.636;2024-02-15T01:26:18;44.53;;;43.00;;
79751;SDS011;69234;47.446;21.636;2024-02-15T01:26:49;42.87;;;41.73;;
79751;SDS011;69234;47.446;21.636;2024-02-15T01:27:19;42.17;;;41.10;;
79751;SDS011;69234;47.446;21.636;2024-02-15T01:27:51;42.30;;;40.97;;
79751;SDS011;69234;47.446;21.636;2024-02-15T01:28:22;41.50;;;40.13;;
79751;SDS011;69234;47.446;21.636;2024-02-15T01:28:53;42.20;;;40.83;;
79751;SDS011;69234;47.446;21.636;2024-02-15T01:29:24;42.13;;;40.90;;
79751;SDS011;69234;47.446;21.636;2024-02-15T01:29:56;43.43;;;41.77;;
79751;SDS011;69234;47.446;21.636;2024-02-15T01:30:27;42.80;;;41.17;;
79751;SDS011;69234;47.446;21.636;2024-02-15T01:30:59;41.10;;;39.80;;
79751;SDS011;69234;47.446;21.636;2024-02-15T01:31:30;42.13;;;40.70;;
79751;SDS011;69234;47.446;21.636;2024-02-15T01:32:01;42.43;;;41.43;;
79751;SDS011;69234;47.446;21.636;2024-02-15T01:32:32;42.07;;;41.00;;
79751;SDS011;69234;47.446;21.636;2024-02-15T01:33:03;42.73;;;41.37;;
79751;SDS011;69234;47.446;21.636;2024-02-15T01:33:34;41.47;;;39.93;;
79751;SDS011;69234;47.446;21.636;2024-02-15T01:34:06;41.53;;;40.10;;
79751;SDS011;69234;47.446;21.636;2024-02-15T01:34:37;40.57;;;39.43;;
79751;SDS011;69234;47.446;21.636;2024-02-15T01:35:08;39.87;;;39.00;;
79751;SDS011;69234;47.446;21.636;2024-02-15T01:35:40;42.00;;;40.87;;
79751;SDS011;69234;47.446;21.636;2024-02-15T01:36:14;41.67;;;40.33;;
79751;SDS011;69234;47.446;21.636;2024-02-15T01:36:47;42.00;;;40.67;;
79751;SDS011;69234;47.446;21.636;2024-02-15T01:37:20;39.03;;;37.77;;
79751;SDS011;69234;47.446;21.636;2024-02-15T01:37:51;39.60;;;38.57;;
79751;SDS011;69234;47.446;21.636;2024-02-15T01:38:22;39.90;;;38.90;;
79751;SDS011;69234;47.446;21.636;2024-02-15T01:38:53;40.37;;;39.50;;
79751;SDS011;69234;47.446;21.636;2024-02-15T01:39:24;39.47;;;38.53;;
79751;SDS011;69234;47.446;21.636;2024-02-15T01:39:55;39.90;;;38.77;;
79751;SDS011;69234;47.446;21.636;2024-02-15T01:40:26;39.83;;;38.63;;
79751;SDS011;69234;47.446;21.636;2024-02-15T01:40:57;39.70;;;38.57;;
79751;SDS011;69234;47.446;21.636;2024-02-15T01:41:28;40.20;;;38.97;;
79751;SDS011;69234;47.446;21.636;2024-02-15T01:41:59;40.03;;;38.60;;
79751;SDS011;69234;47.446;21.636;2024-02-15T01:42:30;39.10;;;37.63;;
79751;SDS011;69234;47.446;21.636;2024-02-15T01:43:01;39.50;;;38.27;;
79751;SDS011;69234;47.446;21.636;2024-02-15T01:43:32;39.30;;;38.03;;
79751;SDS011;69234;47.446;21.636;2024-02-15T01:44:03;39.80;;;38.20;;
79751;SDS011;69234;47.446;21.636;2024-02-15T01:44:36;39.73;;;38.37;;
79751;SDS011;69234;47.446;21.636;2024-02-15T01:45:07;38.87;;;37.73;;
79751;SDS011;69234;47.446;21.636;2024-02-15T01:45:40;38.03;;;36.83;;
79751;SDS011;69234;47.446;21.636;2024-02-15T01:46:11;36.63;;;35.37;;
79751;SDS011;69234;47.446;21.636;2024-02-15T01:46:43;39.10;;;37.70;;
79751;SDS011;69234;47.446;21.636;2024-02-15T01:47:17;38.47;;;37.30;;
79751;SDS011;69234;47.446;21.636;2024-02-15T01:47:53;39.17;;;37.93;;
79751;SDS011;69234;47.446;21.636;2024-02-15T01:48:24;39.43;;;38.13;;
79751;SDS011;69234;47.446;21.636;2024-02-15T01:48:55;39.70;;;38.53;;
79751;SDS011;69234;47.446;21.636;2024-02-15T01:49:26;39.40;;;38.17;;
79751;SDS011;69234;47.446;21.636;2024-02-15T01:49:58;39.23;;;38.10;;
79751;SDS011;69234;47.446;21.636;2024-02-15T01:50:30;40.03;;;38.77;;
79751;SDS011;69234;47.446;21.636;2024-02-15T01:51:04;38.23;;;36.83;;
79751;SDS011;69234;47.446;21.636;2024-02-15T01:51:37;39.30;;;37.93;;
79751;SDS011;69234;47.446;21.636;2024-02-15T01:52:11;39.63;;;38.37;;
79751;SDS011;69234;47.446;21.636;2024-02-15T01:52:43;38.97;;;37.67;;
79751;SDS011;69234;47.446;21.636;2024-02-15T01:53:17;38.10;;;37.10;;
79751;SDS011;69234;47.446;21.636;2024-02-15T01:53:48;38.80;;;37.80;;
79751;SDS011;69234;47.446;21.636;2024-02-15T01:54:19;40.37;;;39.17;;
79751;SDS011;69234;47.446;21.636;2024-02-15T01:54:51;39.63;;;38.17;;
79751;SDS011;69234;47.446;21.636;2024-02-15T01:55:24;38.80;;;37.33;;
79751;SDS011;69234;47.446;21.636;2024-02-15T01:55:58;39.77;;;38.17;;
79751;SDS011;69234;47.446;21.636;2024-02-15T01:56:30;39.53;;;38.10;;
79751;SDS011;69234;47.446;21.636;2024-02-15T01:57:02;40.47;;;38.83;;
79751;SDS011;69234;47.446;21.636;2024-02-15T01:57:35;39.47;;;38.03;;
79751;SDS011;69234;47.446;21.636;2024-02-15T01:58:08;36.90;;;35.63;;
79751;SDS011;69234;47.446;21.636;2024-02-15T01:58:39;36.67;;;35.63;;
79751;SDS011;69234;47.446;21.636;2024-02-15T01:59:14;36.87;;;35.90;;
79751;SDS011;69234;47.446;21.636;2024-02-15T01:59:46;37.93;;;36.87;;
79751;SDS011;69234;47.446;21.636;2024-02-15T02:00:20;36.97;;;36.03;;
79751;SDS011;69234;47.446;21.636;2024-02-15T02:00:55;37.37;;;36.50;;
79751;SDS011;69234;47.446;21.636;2024-02-15T02:01:27;36.63;;;35.67;;
79751;SDS011;69234;47.446;21.636;2024-02-15T02:02:02;38.60;;;37.50;;
79751;SDS011;69234;47.446;21.636;2024-02-15T02:02:41;37.67;;;36.63;;
79751;SDS011;69234;47.446;21.636;2024-02-15T02:03:14;36.73;;;35.73;;
79751;SDS011;69234;47.446;21.636;2024-02-15T02:03:45;37.20;;;36.23;;
79751;SDS011;69234;47.446;21.636;2024-02-15T02:04:16;36.20;;;35.13;;
79751;SDS011;69234;47.446;21.636;2024-02-15T02:04:47;36.83;;;35.87;;
79751;SDS011;69234;47.446;21.636;2024-02-15T02:05:19;36.50;;;35.53;;
79751;SDS011;69234;47.446;21.636;2024-02-15T02:05:50;38.63;;;37.40;;
79751;SDS011;69234;47.446;21.636;2024-02-15T02:06:21;39.47;;;38.20;;
79751;SDS011;69234;47.446;21.636;2024-02-15T02:06:52;38.10;;;37.17;;
79751;SDS011;69234;47.446;21.636;2024-02-15T02:07:28;39.30;;;38.30;;
79751;SDS011;69234;47.446;21.636;2024-02-15T02:07:59;40.33;;;39.00;;
79751;SDS011;69234;47.446;21.636;2024-02-15T02:08:34;39.17;;;37.67;;
79751;SDS011;69234;47.446;21.636;2024-02-15T02:09:05;40.47;;;38.90;;
79751;SDS011;69234;47.446;21.636;2024-02-15T02:09:46;40.27;;;38.93;;
79751;SDS011;69234;47.446;21.636;2024-02-15T02:10:17;41.63;;;40.47;;
79751;SDS011;69234;47.446;21.636;2024-02-15T02:10:49;41.03;;;39.77;;
79751;SDS011;69234;47.446;21.636;2024-02-15T02:11:22;41.43;;;40.00;;
79751;SDS011;69234;47.446;21.636;2024-02-15T02:11:54;41.30;;;39.90;;
79751;SDS011;69234;47.446;21.636;2024-02-15T02:12:25;42.37;;;41.13;;
79751;SDS011;69234;47.446;21.636;2024-02-15T02:12:58;43.00;;;41.73;;
79751;SDS011;69234;47.446;21.636;2024-02-15T02:13:32;42.90;;;41.33;;
79751;SDS011;69234;47.446;21.636;2024-02-15T02:14:03;43.97;;;42.07;;
79751;SDS011;69234;47.446;21.636;2024-02-15T02:14:34;42.83;;;41.10;;
79751;SDS011;69234;47.446;21.636;2024-02-15T02:15:09;42.47;;;40.93;;
79751;SDS011;69234;47.446;21.636;2024-02-15T02:15:41;42.80;;;41.47;;
79751;SDS011;69234;47.446;21.636;2024-02-15T02:16:25;43.83;;;42.53;;
79751;SDS011;69234;47.446;21.636;2024-02-15T02:17:11;43.33;;;41.67;;
79751;SDS011;69234;47.446;21.636;2024-02-15T02:17:50;43.37;;;41.67;;
79751;SDS011;69234;47.446;21.636;2024-02-15T02:18:21;42.27;;;41.07;;
79751;SDS011;69234;47.446;21.636;2024-02-15T02:18:55;44.00;;;42.80;;
79751;SDS011;69234;47.446;21.636;2024-02-15T02:19:29;43.60;;;42.37;;
79751;SDS011;69234;47.446;21.636;2024-02-15T02:20:00;45.77;;;43.97;;
79751;SDS011;69234;47.446;21.636;2024-02-15T02:20:31;45.40;;;43.57;;
79751;SDS011;69234;47.446;21.636;2024-02-15T02:21:04;45.93;;;44.07;;
79751;SDS011;69234;47.446;21.636;2024-02-15T02:21:36;44.97;;;43.27;;
79751;SDS011;69234;47.446;21.636;2024-02-15T02:22:09;44.13;;;42.77;;
79751;SDS011;69234;47.446;21.636;2024-02-15T02:22:40;44.53;;;43.37;;
79751;SDS011;69234;47.446;21.636;2024-02-15T02:23:13;43.27;;;42.07;;
79751;SDS011;69234;47.446;21.636;2024-02-15T02:23:48;44.30;;;43.13;;
79751;SDS011;69234;47.446;21.636;2024-02-15T02:24:25;44.97;;;43.50;;
79751;SDS011;69234;47.446;21.636;2024-02-15T02:25:06;44.83;;;43.37;;
79751;SDS011;69234;47.446;21.636;2024-02-15T02:25:38;44.47;;;42.93;;
79751;SDS011;69234;47.446;21.636;2024-02-15T02:26:12;44.60;;;42.70;;
79751;SDS011;69234;47.446;21.636;2024-02-15T02:26:43;45.50;;;43.63;;
79751;SDS011;69234;47.446;21.636;2024-02-15T02:27:14;46.40;;;44.87;;
79751;SDS011;69234;47.446;21.636;2024-02-15T02:27:47;45.10;;;43.73;;
79751;SDS011;69234;47.446;21.636;2024-02-15T02:28:18;45.23;;;43.97;;
79751;SDS011;69234;47.446;21.636;2024-02-15T02:28:49;46.77;;;45.37;;
79751;SDS011;69234;47.446;21.636;2024-02-15T02:29:23;46.23;;;44.87;;
79751;SDS011;69234;47.446;21.636;2024-02-15T02:29:54;46.87;;;45.40;;
79751;SDS011;69234;47.446;21.636;2024-02-15T02:30:26;46.43;;;45.03;;
79751;SDS011;69234;47.446;21.636;2024-02-15T02:30:59;46.40;;;45.17;;
79751;SDS011;69234;47.446;21.636;2024-02-15T02:31:33;46.73;;;45.37;;
79751;SDS011;69234;47.446;21.636;2024-02-15T02:32:05;49.50;;;47.23;;
79751;SDS011;69234;47.446;21.636;2024-02-15T02:32:37;49.57;;;47.50;;
79751;SDS011;69234;47.446;21.636;2024-02-15T02:33:12;49.27;;;47.47;;
79751;SDS011;69234;47.446;21.636;2024-02-15T02:33:52;47.60;;;46.07;;
79751;SDS011;69234;47.446;21.636;2024-02-15T02:34:24;49.00;;;47.17;;
79751;SDS011;69234;47.446;21.636;2024-02-15T02:34:56;48.33;;;46.57;;
79751;SDS011;69234;47.446;21.636;2024-02-15T02:35:27;50.07;;;48.13;;
79751;SDS011;69234;47.446;21.636;2024-02-15T02:36:00;50.03;;;48.33;;
79751;SDS011;69234;47.446;21.636;2024-02-15T02:36:31;50.17;;;48.47;;
79751;SDS011;69234;47.446;21.636;2024-02-15T02:37:02;49.77;;;47.70;;
79751;SDS011;69234;47.446;21.636;2024-02-15T02:37:35;50.00;;;48.00;;
79751;SDS011;69234;47.446;21.636;2024-02-15T02:38:06;50.07;;;48.17;;
79751;SDS011;69234;47.446;21.636;2024-02-15T02:38:37;50.47;;;48.63;;
79751;SDS011;69234;47.446;21.636;2024-02-15T02:39:08;50.00;;;48.20;;
79751;SDS011;69234;47.446;21.636;2024-02-15T02:39:39;48.67;;;47.33;;
79751;SDS011;69234;47.446;21.636;2024-02-15T02:40:11;49.50;;;48.30;;
79751;SDS011;69234;47.446;21.636;2024-02-15T02:40:43;49.83;;;48.53;;
79751;SDS011;69234;47.446;21.636;2024-02-15T02:41:14;52.13;;;50.70;;
79751;SDS011;69234;47.446;21.636;2024-02-15T02:41:45;53.17;;;51.27;;
79751;SDS011;69234;47.446;21.636;2024-02-15T02:42:16;52.50;;;50.97;;
79751;SDS011;69234;47.446;21.636;2024-02-15T02:43:30;52.40;;;50.63;;
79751;SDS011;69234;47.446;21.636;2024-02-15T02:44:00;53.00;;;51.20;;
79751;SDS011;69234;47.446;21.636;2024-02-15T02:44:31;53.17;;;51.33;;
79751;SDS011;69234;47.446;21.636;2024-02-15T02:45:02;52.90;;;51.23;;
79751;SDS011;69234;47.446;21.636;2024-02-15T02:45:35;52.70;;;51.03;;
79751;SDS011;69234;47.446;21.636;2024-02-15T02:46:06;53.60;;;51.80;;
79751;SDS011;69234;47.446;21.636;2024-02-15T02:46:42;52.53;;;51.07;;
79751;SDS011;69234;47.446;21.636;2024-02-15T02:47:13;52.03;;;50.43;;
79751;SDS011;69234;47.446;21.636;2024-02-15T02:47:44;52.57;;;50.53;;
79751;SDS011;69234;47.446;21.636;2024-02-15T02:48:15;51.73;;;49.77;;
79751;SDS011;69234;47.446;21.636;2024-02-15T02:48:47;50.80;;;49.03;;
79751;SDS011;69234;47.446;21.636;2024-02-15T02:49:18;50.73;;;48.80;;
79751;SDS011;69234;47.446;21.636;2024-02-15T02:49:49;50.10;;;48.27;;
79751;SDS011;69234;47.446;21.636;2024-02-15T02:50:20;50.27;;;48.10;;
79751;SDS011;69234;47.446;21.636;2024-02-15T02:50:52;49.50;;;47.80;;
79751;SDS011;69234;47.446;21.636;2024-02-15T02:51:23;50.17;;;48.40;;
79751;SDS011;69234;47.446;21.636;2024-02-15T02:51:54;51.00;;;49.67;;
79751;SDS011;69234;47.446;21.636;2024-02-15T02:52:25;50.43;;;49.20;;
79751;SDS011;69234;47.446;21.636;2024-02-15T02:52:56;52.37;;;50.40;;
79751;SDS011;69234;47.446;21.636;2024-02-15T02:53:27;52.47;;;50.80;;
79751;SDS011;69234;47.446;21.636;2024-02-15T02:53:58;52.33;;;50.50;;
79751;SDS011;69234;47.446;21.636;2024-02-15T02:54:29;51.53;;;49.63;;
79751;SDS011;69234;47.446;21.636;2024-02-15T02:55:00;53.53;;;51.30;;
79751;SDS011;69234;47.446;21.636;2024-02-15T02:55:31;52.80;;;50.77;;
79751;SDS011;69234;47.446;21.636;2024-02-15T02:56:02;52.07;;;50.07;;
79751;SDS011;69234;47.446;21.636;2024-02-15T02:56:34;50.97;;;49.13;;
79751;SDS011;69234;47.446;21.636;2024-02-15T02:57:05;51.33;;;49.20;;
79751;SDS011;69234;47.446;21.636;2024-02-15T02:57:39;51.33;;;49.37;;
79751;SDS011;69234;47.446;21.636;2024-02-15T02:58:10;51.50;;;49.60;;
79751;SDS011;69234;47.446;21.636;2024-02-15T02:58:41;51.50;;;49.63;;
79751;SDS011;69234;47.446;21.636;2024-02-15T02:59:14;50.10;;;48.50;;
79751;SDS011;69234;47.446;21.636;2024-02-15T02:59:46;52.77;;;50.67;;
79751;SDS011;69234;47.446;21.636;2024-02-15T03:00:17;50.17;;;48.50;;
79751;SDS011;69234;47.446;21.636;2024-02-15T03:00:51;51.33;;;49.47;;
79751;SDS011;69234;47.446;21.636;2024-02-15T03:01:23;50.03;;;48.47;;
79751;SDS011;69234;47.446;21.636;2024-02-15T03:01:56;50.10;;;48.70;;
79751;SDS011;69234;47.446;21.636;2024-02-15T03:02:27;52.03;;;50.40;;
79751;SDS011;69234;47.446;21.636;2024-02-15T03:02:59;51.47;;;49.73;;
79751;SDS011;69234;47.446;21.636;2024-02-15T03:03:30;50.40;;;48.93;;
79751;SDS011;69234;47.446;21.636;2024-02-15T03:04:01;50.67;;;48.70;;
79751;SDS011;69234;47.446;21.636;2024-02-15T03:04:32;53.13;;;51.17;;